• Join FlightAware (Why Join?)
  • Login
  • US Flag 
09:34AM EDT


 

Airport Tracker/Info


-or-


 

Live Flight TrackerFlight Track Log ✈ N726XJ ✈ 29-Jul-2013 ✈ KVNY - KTEB

Flight Track Log - Related Links

Times and Time Zones

All times are in EDT time to prevent confusion due to time zone crossing. See the N726XJ flight status page for this flight to view local times or setup timezone preferences in your user account.

Time Position Orientation Groundspeed Altitude Reporting Facility
EDT Latitude Longitude Course Direction KTS MPH feet Rate Location/Type
01:58PM 34.1767 -118.4864 102° East 185 213 1,700  Level Los Angeles Center
01:59PM 34.1664 -118.4278 102° East 240 276 4,100 2,400 Climbing Los Angeles Center
02:00PM 34.2447 -118.4536 345° North 255 293 7,200 2,280 Climbing Los Angeles Center
02:01PM 34.3158 -118.4350 12° North 275 316 9,400 1,800 Climbing Los Angeles Center
02:02PM 34.3889 -118.3833 30° Northeast 303 349 11,000 1,680 Climbing Los Angeles Center
02:03PM 34.4867 -118.3019 34° Northeast 358 412 12,900 1,740 Climbing Los Angeles Center
02:04PM 34.5489 -118.1981 54° Northeast 381 438 14,600 1,500 Climbing Los Angeles Center
02:05PM 34.6064 -118.1022 54° Northeast 388 447 16,100 1,560 Climbing Los Angeles Center
02:06PM 34.6461 -117.9503 72° East 395 455 17,900 1,500 Climbing Los Angeles Center
02:07PM 34.6586 -117.8131 84° East 408 470 19,300 1,380 Climbing Los Angeles Center
02:08PM 34.6883 -117.6733 75° East 422 486 20,800 1,200 Climbing Los Angeles Center
02:09PM 34.7206 -117.5381 74° East 426 490 21,800 960 Climbing Los Angeles Center
02:10PM 34.7569 -117.3964 73° East 441 507 22,800 1,080 Climbing Los Angeles Center
02:11PM 34.8003 -117.2244 73° East 447 514 24,100 1,140 Climbing Los Angeles Center
02:12PM 34.8367 -117.0769 73° East 458 527 25,200 1,020 Climbing Los Angeles Center
02:13PM 34.8944 -116.9375 63° Northeast 464 534 26,300 1,020 Climbing Los Angeles Center
02:14PM 34.9750 -116.8103 52° Northeast 475 547 27,400 1,140 Climbing Los Angeles Center
02:16PM 35.0600 -116.6842 51° Northeast 481 554 28,700 1,200 Climbing Los Angeles Center
02:17PM 35.1625 -116.5347 50° Northeast 481 554 29,900 960 Climbing Los Angeles Center
02:18PM 35.2508 -116.4078 50° Northeast 488 562 30,800 720 Climbing Los Angeles Center
02:19PM 35.3386 -116.2775 50° Northeast 494 568 31,500 720 Climbing Los Angeles Center
02:20PM 35.4269 -116.1411 51° Northeast 509 586 32,300 900 Climbing Los Angeles Center
02:21PM 35.5200 -116.0067 50° Northeast 515 593 33,400 1,080 Climbing Los Angeles Center
02:22PM 35.6292 -115.8439 50° Northeast 521 600 34,600 960 Climbing Los Angeles Center
02:23PM 35.7222 -115.7039 51° Northeast 528 608 35,500 720 Climbing Los Angeles Center
02:24PM 35.8175 -115.5606 51° Northeast 539 620 36,300 720 Climbing Los Angeles Center
02:25PM 35.9311 -115.3861 51° Northeast 546 628 37,200 900 Climbing Los Angeles Center
02:26PM 36.0450 -115.2100 51° Northeast 548 631 38,200 840 Climbing Los Angeles Center
02:27PM 36.1481 -115.0681 48° Northeast 559 643 39,000 720 Climbing Los Angeles Center
02:28PM 36.2581 -114.9308 45° Northeast 565 650 39,700 720 Climbing Los Angeles Center
02:29PM 36.3669 -114.7917 46° Northeast 565 650 40,500 720 Climbing Los Angeles Center
02:30PM 36.4753 -114.6508 46° Northeast 565 650 41,300 780 Climbing Los Angeles Center
02:31PM 36.6256 -114.4550 46° Northeast 559 643 42,400 720 Climbing Los Angeles Center
02:32PM 36.7311 -114.3156 47° Northeast 555 639 43,000 240 Climbing Los Angeles Center
02:34PM 36.8189 -114.1575 55° Northeast 556 640 43,000  Level Los Angeles Center
02:35PM 36.8992 -113.9900 59° Northeast 562 647 43,000  Level Los Angeles Center
02:36PM 36.9919 -113.7978 59° Northeast 563 648 43,000  Level Los Angeles Center
02:37PM 37.0719 -113.6292 59° Northeast 565 650 43,000  Level Los Angeles Center
02:38PM 37.1514 -113.4611 59° Northeast 563 648 43,000  Level Los Angeles Center
02:39PM 37.2322 -113.2908 59° Northeast 568 654 43,000  Level Los Angeles Center
02:40PM 37.3111 -113.1217 60° Northeast 565 650 43,000  Level Los Angeles Center
02:41PM 37.4047 -112.9183 60° Northeast 567 652 43,000  Level Los Angeles Center
02:42PM 37.4794 -112.7503 61° Northeast 566 651 43,000  Level Los Angeles Center
02:43PM 37.5594 -112.5836 59° Northeast 571 657 43,000  Level Los Angeles Center
02:44PM 37.6372 -112.4150 60° Northeast 564 649 43,000  Level Salt Lake Center
02:45PM 37.7186 -112.2489 58° Northeast 561 646 43,000  Level Salt Lake Center
02:46PM 37.8167 -112.0467 58° Northeast 563 648 43,000  Level Salt Lake Center
02:47PM 37.8725 -111.8606 69° East 566 651 43,000  Level Salt Lake Center
02:48PM 37.9078 -111.7494 68° East 566 651 43,000  Level Denver Center
02:49PM 37.9617 -111.5628 70° East 568 654 43,000  Level Denver Center
02:50PM 38.0175 -111.3753 69° East 570 656 43,000  Level Denver Center
02:51PM 38.0744 -111.1883 69° East 570 656 43,000  Level Denver Center
02:52PM 38.1278 -111.0011 70° East 567 652 43,000  Level Denver Center
02:53PM 38.1906 -110.7869 69° East 566 651 43,000  Level Denver Center
02:54PM 38.2511 -110.5764 70° East 568 654 43,000  Level Denver Center
02:55PM 38.3033 -110.3958 70° East 570 656 43,000  Level Denver Center
02:56PM 38.3631 -110.1856 70° East 567 652 43,000  Level Denver Center
02:57PM 38.4144 -110.0056 70° East 566 651 43,000  Level Denver Center
02:58PM 38.4644 -109.8236 71° East 569 655 43,000  Level Denver Center
02:59PM 38.5236 -109.6147 70° East 564 649 43,000  Level Denver Center
03:00PM 38.5819 -109.4017 71° East 566 651 43,000  Level Denver Center
03:01PM 38.6311 -109.2186 71° East 568 654 43,000  Level Denver Center
03:02PM 38.6900 -109.0072 70° East 567 652 43,000  Level Denver Center
03:03PM 38.7386 -108.8253 71° East 568 654 43,000  Level Denver Center
03:04PM 38.7958 -108.6133 71° East 565 650 43,000  Level Denver Center
03:05PM 38.8433 -108.4303 72° East 569 655 43,000  Level Denver Center
03:06PM 38.9014 -108.2136 71° East 578 665 43,000  Level Denver Center
03:07PM 38.9494 -108.0317 71° East 567 652 43,000  Level Denver Center
03:08PM 39.0058 -107.8189 71° East 565 650 43,000  Level Denver Center
03:09PM 39.0533 -107.6342 72° East 568 654 43,000  Level Denver Center
03:10PM 39.1086 -107.4197 72° East 567 652 43,000  Level Denver Center
03:11PM 39.1556 -107.2356 72° East 567 652 43,000  Level Denver Center
03:12PM 39.2094 -107.0200 72° East 567 652 43,000  Level Denver Center
03:13PM 39.2558 -106.8342 72° East 570 656 43,000  Level Denver Center
03:14PM 39.3092 -106.6197 72° East 564 649 43,000  Level Denver Center
03:16PM 39.3544 -106.4347 72° East 564 649 43,000  Level Denver Center
03:17PM 39.4000 -106.2483 72° East 567 652 43,000  Level Denver Center
03:18PM 39.4483 -106.0472 73° East 570 656 43,000  Level Denver Center
03:19PM 39.4950 -105.8519 73° East 568 654 43,000  Level Denver Center
03:20PM 39.5522 -105.6158 72° East 562 647 43,000  Level Denver Center
03:21PM 39.5983 -105.4186 73° East 569 655 43,000  Level Denver Center
03:22PM 39.6436 -105.2239 73° East 561 646 43,000  Level Denver Center
03:23PM 39.6886 -105.0236 74° East 570 656 43,000 180 Level Denver Center
03:24PM 39.7344 -104.8253 73° East 563 648 43,400 360 Climbing Denver Center
03:25PM 39.7817 -104.6250 73° East 559 643 43,800 360 Climbing Denver Center
03:26PM 39.8256 -104.4231 74° East 553 636 44,200 360 Climbing Denver Center
03:27PM 39.8675 -104.2297 74° East 544 626 44,600 360 Climbing Denver Center
03:28PM 39.9183 -103.9992 74° East 543 625 45,000 180 Climbing Denver Center
03:29PM 39.9594 -103.8064 74° East 553 636 45,000  Level Denver Center
03:30PM 40.0025 -103.6158 74° East 539 620 45,000  Level Denver Center
03:31PM 40.0439 -103.4208 74° East 557 641 45,000  Level Denver Center
03:32PM 40.0861 -103.2267 74° East 558 642 45,000  Level Denver Center
03:33PM 40.1269 -103.0322 75° East 555 639 45,000  Level Denver Center
03:34PM 40.1747 -102.7989 75° East 554 638 45,000  Level Denver Center
03:35PM 40.2161 -102.6056 74° East 554 638 45,000  Level Denver Center
03:36PM 40.2525 -102.4203 76° East 551 634 45,000  Level Denver Center
03:37PM 40.2978 -102.2039 75° East 552 635 45,000  Level Denver Center
03:38PM 40.3336 -102.0167 76° East 554 638 45,000  Level Denver Center
03:39PM 40.3789 -101.8003 75° East 552 635 45,000  Level Denver Center
03:40PM 40.4156 -101.6136 75° East 552 635 45,000  Level Denver Center
03:41PM 40.4589 -101.3958 75° East 554 638 45,000  Level Denver Center
03:42PM 40.4933 -101.2092 76° East 552 635 45,000  Level Denver Center
03:43PM 40.5353 -100.9911 76° East 553 636 45,000  Level Denver Center
03:44PM 40.5694 -100.8047 76° East 554 638 45,000  Level Denver Center
03:46PM 40.6094 -100.5881 76° East 555 639 45,000  Level Denver Center
03:47PM 40.6447 -100.4047 76° East 548 631 45,000  Level Denver Center
03:48PM 40.6850 -100.1894 76° East 547 629 45,000  Level Denver Center
03:49PM 40.7181 -100.0031 77° East 548 631 45,000  Level Denver Center
03:50PM 40.7583 -99.7831 76° East 550 633 45,000  Level Denver Center
03:51PM 40.7919 -99.5881 77° East 547 629 45,000  Level Denver Center
03:52PM 40.8264 -99.3931 77° East 547 629 45,000  Level Denver Center
03:53PM 40.8603 -99.1989 77° East 546 628 45,000  Level Denver Center
03:54PM 40.8978 -98.9767 77° East 544 626 45,000  Level Denver Center
03:55PM 40.9358 -98.7425 78° East 544 626 45,000  Level Minneapolis Center
03:56PM 40.9708 -98.5461 77° East 547 629 45,000  Level Minneapolis Center
03:57PM 41.0036 -98.3517 77° East 546 628 45,000  Level Minneapolis Center
03:58PM 41.0356 -98.1572 78° East 545 627 45,000  Level Minneapolis Center
03:59PM 41.0667 -97.9631 78° East 542 624 45,000  Level Minneapolis Center
04:00PM 41.1036 -97.7278 78° East 544 626 45,000  Level Minneapolis Center
04:01PM 41.1353 -97.5317 78° East 546 628 45,000  Level Minneapolis Center
04:02PM 41.1661 -97.3344 78° East 544 626 45,000  Level Minneapolis Center
04:03PM 41.1969 -97.1364 78° East 547 629 45,000  Level Minneapolis Center
04:04PM 41.2272 -96.9397 78° East 546 628 45,000  Level Minneapolis Center
04:05PM 41.2578 -96.7425 78° East 547 629 45,000  Level Minneapolis Center
04:06PM 41.2864 -96.5439 79° East 549 632 45,000  Level Minneapolis Center
04:07PM 41.3214 -96.3056 79° East 552 635 45,000  Level Minneapolis Center
04:08PM 41.3478 -96.1053 80° East 551 634 45,000  Level Minneapolis Center
04:09PM 41.3714 -95.9047 81° East 550 633 45,000  Level Minneapolis Center
04:10PM 41.3964 -95.7025 81° East 552 635 45,000  Level Minneapolis Center
04:12PM 41.4231 -95.4797 81° East 551 634 45,000  Level Minneapolis Center
04:13PM 41.4472 -95.2781 81° East 551 634 45,000  Level Minneapolis Center
04:14PM 41.4719 -95.0747 81° East 554 638 45,000  Level Minneapolis Center
04:15PM 41.4908 -94.9122 81° East 555 639 45,000  Level Minneapolis Center
04:16PM 41.5178 -94.6675 82° East 557 641 45,000  Level Minneapolis Center
04:17PM 41.5447 -94.4225 82° East 558 642 45,000  Level Minneapolis Center
04:18PM 41.5678 -94.2178 81° East 559 643 45,000  Level Minneapolis Center
04:19PM 41.5858 -94.0219 83° East 554 638 45,000  Level Minneapolis Center
04:20PM 41.6092 -93.8169 81° East 558 642 45,000  Level Minneapolis Center
04:21PM 41.6303 -93.6139 82° East 557 641 45,000  Level Minneapolis Center
04:22PM 41.6561 -93.3661 82° East 563 648 45,000  Level Minneapolis Center
04:23PM 41.6767 -93.1644 82° East 555 639 45,000  Level Minneapolis Center
04:24PM 41.6956 -92.9614 83° East 553 636 45,000  Level Minneapolis Center
04:25PM 41.7139 -92.7744 82° East 554 638 45,000  Level Minneapolis Center
04:26PM 41.7369 -92.5328 83° East 553 636 45,000  Level Minneapolis Center
04:27PM 41.7556 -92.3306 83° East 553 636 45,000  Level Minneapolis Center
04:28PM 41.7744 -92.1278 83° East 556 640 45,000  Level Minneapolis Center
04:29PM 41.7914 -91.9239 84° East 557 641 45,000  Level Minneapolis Center
04:30PM 41.8075 -91.7375 83° East 555 639 45,000  Level Minneapolis Center
04:32PM 41.8140 -91.5031 88° East  Level FlightAware Approximate
04:32PM 41.8492 -91.2394 88° East 548 631 45,000  Level Chicago Center
04:33PM 41.8650 -91.0378 84° East 551 634 45,000  Level Chicago Center
04:34PM 41.8800 -90.8392 84° East 547 629 45,000  Level Chicago Center
04:35PM 41.8992 -90.5983 84° East 548 631 45,000  Level Chicago Center
04:37PM 41.9147 -90.4000 84° East 543 625 45,000  Level Chicago Center
04:38PM 41.9278 -90.2017 85° East 541 623 45,000  Level Chicago Center
04:39PM 41.9422 -90.0014 84° East 544 626 45,000  Level Chicago Center
04:40PM 41.9567 -89.7717 85° East 541 623 45,000  Level Chicago Center
04:41PM 41.9717 -89.5733 84° East 537 618 45,000  Level Chicago Center
04:42PM 41.9856 -89.3614 85° East 541 623 45,000  Level Chicago Center
04:43PM 41.9967 -89.1708 85° East 537 618 45,000  Level Chicago Center
04:44PM 42.0119 -88.9369 85° East 539 620 45,000  Level Chicago Center
04:45PM 42.0236 -88.7364 85° East 539 620 45,000  Level Chicago Center
04:46PM 42.0358 -88.5369 85° East 538 619 45,000  Level Chicago Center
04:47PM 42.0467 -88.3353 86° East 543 625 45,000  Level Chicago Center
04:48PM 42.0586 -88.1314 85° East 546 628 45,000  Level Chicago Center
04:49PM 42.0706 -87.8972 86° East 541 623 45,000  Level Chicago Center
04:50PM 42.0806 -87.6964 86° East 540 621 45,000  Level Chicago Center
04:51PM 42.0911 -87.4961 86° East 539 620 45,000  Level Chicago Center
04:52PM 42.1000 -87.2964 87° East 536 617 45,000  Level Chicago Center
04:53PM 42.1094 -87.0969 86° East 536 617 45,000  Level Chicago Center
04:54PM 42.1183 -86.8764 87° East 531 611 45,000  Level Chicago Center
04:55PM 42.1275 -86.6778 86° East 531 611 45,000  Level Chicago Center
04:56PM 42.1350 -86.4803 87° East 529 609 45,000  Level Chicago Center
04:57PM 42.1422 -86.2811 87° East 531 611 45,000  Level Chicago Center
04:58PM 42.1500 -86.0806 87° East 535 616 45,000  Level Chicago Center
04:59PM 42.1578 -85.8578 87° East 533 613 45,000  Level Chicago Center
05:00PM 42.1636 -85.6581 88° East 537 618 45,000  Level Chicago Center
05:01PM 42.1706 -85.4583 87° East 538 619 45,000  Level Chicago Center
05:02PM 42.1783 -85.2194 87° East 536 617 45,000  Level Chicago Center
05:03PM 42.1828 -85.0200 88° East 535 616 45,000  Level Chicago Center
05:04PM 42.1894 -84.8194 87° East 536 617 45,000  Level Chicago Center
05:05PM 42.1939 -84.6225 88° East 532 612 45,000  Level Chicago Center
05:07PM 42.1981 -84.4225 88° East 534 615 45,000  Level Chicago Center
05:07PM 42.1989 -84.2047 90° East 536 617 45,000  Level Cleveland Center
05:08PM 42.2028 -84.0058 88° East 536 617 45,000  Level Cleveland Center
05:09PM 42.2086 -83.8100 88° East 531 611 45,000  Level Cleveland Center
05:10PM 42.2086 -83.6528 90° East 531 611 45,000  Level Cleveland Center
05:11PM 42.2128 -83.4119 89° East 536 617 45,000  Level Cleveland Center
05:12PM 42.2153 -83.2131 89° East 531 611 45,000  Level Cleveland Center
05:13PM 42.2153 -83.0250 90° East 536 617 45,000  Level Cleveland Center
05:14PM 42.2172 -82.8261 89° East 530 610 45,000  Level Cleveland Center
05:15PM 42.2189 -82.6300 89° East 530 610 45,000  Level Cleveland Center
05:16PM 42.2203 -82.4281 89° East 530 610 45,000  Level Cleveland Center
05:17PM 42.2211 -82.2317 90° East 530 610 45,000  Level Cleveland Center
05:18PM 42.2239 -82.0300 89° East 530 610 45,000  Level Cleveland Center
05:19PM 42.2219 -81.8308 91° East 536 617 45,000  Level Cleveland Center
05:20PM 42.2219 -81.6317 90° East 531 611 45,000  Level Cleveland Center
05:21PM 42.2194 -81.4297 91° East 531 611 45,000  Level Cleveland Center
05:22PM 42.2061 -81.2250 95° East 540 621 45,000  Level Cleveland Center
05:23PM 42.1883 -81.0036 96° East 540 621 45,000  Level Cleveland Center
05:25PM 42.1591 -80.8018 99° East  Level FlightAware Approximate
05:25PM 42.1372 -80.6000 99° East 546 628 45,000  Level Cleveland Center
05:26PM 42.1161 -80.4011 98° East 541 623 45,000  Level Cleveland Center
05:27PM 42.0906 -80.2000 100° East 548 631 45,000  Level Cleveland Center
05:28PM 42.0669 -79.9986 99° East 543 625 45,000  Level Cleveland Center
05:29PM 42.0406 -79.8003 100° East 543 625 45,000 -60 Level Cleveland Center
05:30PM 42.0161 -79.5967 99° East 543 625 44,900 -360 Descending Cleveland Center
05:31PM 41.9914 -79.3931 99° East 548 631 44,300 -660 Descending Cleveland Center
05:32PM 41.9642 -79.1869 100° East 553 636 43,600 -720 Descending Cleveland Center
05:33PM 41.9364 -78.9781 100° East 558 642 42,900 -720 Descending Cleveland Center
05:34PM 41.9083 -78.7725 100° East 563 648 42,200 -720 Descending Cleveland Center
05:35PM 41.8797 -78.5639 100° East 563 648 41,500 -780 Descending Cleveland Center
05:36PM 41.8508 -78.3558 100° East 563 648 40,700 -840 Descending Cleveland Center
05:37PM 41.8217 -78.1506 101° East 563 648 39,900 -840 Descending Cleveland Center
05:38PM 41.8072 -78.0394 100° East 556 640 39,400 -840 Descending New York Center
05:39PM 41.7778 -77.8361 101° East 535 616 38,600 -840 Descending New York Center
05:40PM 41.7481 -77.6353 101° East 540 621 37,800 -840 Descending New York Center
05:41PM 41.7200 -77.4297 100° East 552 635 37,000 -900 Descending New York Center
05:42PM 41.6892 -77.2319 102° East 552 635 36,100 -1,200 Descending New York Center
05:43PM 41.6497 -77.0394 105° East 547 629 34,700 -2,160 Descending New York Center
05:44PM 41.5969 -76.8486 110° East 542 624 31,800 -2,880 Descending New York Center
05:45PM 41.5475 -76.6750 111° Southeast 549 632 29,000 -3,060 Descending New York Center
05:46PM 41.4947 -76.4792 110° East 559 643 25,700 -2,640 Descending New York Center
05:47PM 41.4492 -76.2925 108° East 548 631 23,800 -1,860 Descending New York Center
05:48PM 41.3931 -76.1111 112° Southeast 540 621 22,000 -1,740 Descending New York Center
05:49PM 41.3411 -75.9189 110° East 518 596 20,300 -2,040 Descending New York Center
05:50PM 41.2900 -75.7494 112° Southeast 499 574 18,000 -2,280 Descending New York Center
05:52PM 41.1903 -75.4389 113° Southeast 455 524 13,600 -2,220 Descending New York Center
05:53PM 41.1453 -75.3089 115° Southeast 432 497 11,400 -1,860 Descending New York Center
05:54PM 41.1006 -75.1683 113° Southeast 417 480 10,000 -1,380 Descending New York Center
05:55PM 41.0556 -75.0333 114° Southeast 390 449 8,600 -1,620 Descending New York Center
05:56PM 41.0214 -74.9403 116° Southeast 329 379 6,800 -1,380 Descending New York Center
05:57PM 41.0275 -74.8197 86° East 291 335 6,000 -1,020 Descending New York Center
05:58PM 41.0453 -74.7300 75° East 285 328 4,900 -1,260 Descending New York Center
05:59PM 41.0667 -74.6167 76° East 279 321 3,600 -1,020 Descending New York TRACON
06:00PM 41.0500 -74.5167 102° East 272 313 3,000 -300 Descending New York TRACON
06:01PM 41.0167 -74.4167 114° Southeast 277 319 3,000 -240 Level New York TRACON
06:02PM 41.0000 -74.3167 102° East 289 333 2,500 -480 Descending New York TRACON
06:03PM 40.9667 -74.2333 118° Southeast 270 311 2,100 -300 Descending New York TRACON
06:04PM 40.9500 -74.1500 105° East 246 283 2,000 -300 Descending New York TRACON
06:05PM 40.9333 -74.0667 105° East 206 237 1,500 -480 Descending New York TRACON
06:06PM 40.9000 -74.0167 131° Southeast 186 214 1,100 -540 Descending New York TRACON
06:07PM 40.8667 -74.0333 201° Southwest 134 154 500 5,520 Descending New York TRACON
06:09PM 40.8217 -74.0781 217° Southwest 110 127 18,000 8,520 Climbing New York Center